sensor_id;sensor_type;location;lat;lon;timestamp;pressure;altitude;pressure_sealevel;temperature;humidity
79198;BME280;68628;48.714;9.472;2023-04-03T00:00:52;98768.81;;;3.22;69.61
79198;BME280;68628;48.714;9.472;2023-04-03T00:03:19;98763.56;;;3.10;69.29
79198;BME280;68628;48.714;9.472;2023-04-03T00:05:45;98770.31;;;3.13;69.96
79198;BME280;68628;48.714;9.472;2023-04-03T00:08:11;98763.69;;;3.09;70.36
79198;BME280;68628;48.714;9.472;2023-04-03T00:10:37;98766.44;;;2.83;69.02
79198;BME280;68628;48.714;9.472;2023-04-03T00:13:04;98769.88;;;2.83;69.83
79198;BME280;68628;48.714;9.472;2023-04-03T00:15:31;98772.25;;;2.87;70.03
79198;BME280;68628;48.714;9.472;2023-04-03T00:17:57;98769.75;;;2.85;69.26
79198;BME280;68628;48.714;9.472;2023-04-03T00:20:23;98770.19;;;3.03;69.34
79198;BME280;68628;48.714;9.472;2023-04-03T00:22:48;98768.44;;;2.79;69.86
79198;BME280;68628;48.714;9.472;2023-04-03T00:25:14;98773.78;;;2.78;70.38
79198;BME280;68628;48.714;9.472;2023-04-03T00:27:40;98775.53;;;2.77;69.76
79198;BME280;68628;48.714;9.472;2023-04-03T00:30:08;98764.28;;;2.77;69.70
79198;BME280;68628;48.714;9.472;2023-04-03T00:32:38;98768.09;;;2.84;70.19
79198;BME280;68628;48.714;9.472;2023-04-03T00:35:04;98764.88;;;2.80;71.35
79198;BME280;68628;48.714;9.472;2023-04-03T00:37:30;98766.72;;;2.67;70.54
79198;BME280;68628;48.714;9.472;2023-04-03T00:39:56;98764.72;;;2.71;69.97
79198;BME280;68628;48.714;9.472;2023-04-03T00:42:21;98766.53;;;2.81;69.39
79198;BME280;68628;48.714;9.472;2023-04-03T00:47:16;98768.22;;;2.58;69.67
79198;BME280;68628;48.714;9.472;2023-04-03T00:49:44;98765.41;;;2.61;69.73
79198;BME280;68628;48.714;9.472;2023-04-03T00:52:16;98766.63;;;2.69;69.87
79198;BME280;68628;48.714;9.472;2023-04-03T00:54:47;98773.97;;;2.75;70.47
79198;BME280;68628;48.714;9.472;2023-04-03T00:57:16;98767.75;;;2.64;69.76
79198;BME280;68628;48.714;9.472;2023-04-03T00:59:49;98763.28;;;2.66;70.67
79198;BME280;68628;48.714;9.472;2023-04-03T01:02:19;98771.84;;;2.69;69.92
79198;BME280;68628;48.714;9.472;2023-04-03T01:04:45;98771.75;;;2.57;69.59
79198;BME280;68628;48.714;9.472;2023-04-03T01:07:15;98773.28;;;2.73;70.05
79198;BME280;68628;48.714;9.472;2023-04-03T01:09:45;98769.44;;;2.65;70.85
79198;BME280;68628;48.714;9.472;2023-04-03T01:12:23;98772.53;;;2.71;70.30
79198;BME280;68628;48.714;9.472;2023-04-03T01:14:57;98770.75;;;2.71;69.01
79198;BME280;68628;48.714;9.472;2023-04-03T01:17:48;98772.66;;;2.69;69.62
79198;BME280;68628;48.714;9.472;2023-04-03T01:23:17;98772.47;;;2.59;68.85
79198;BME280;68628;48.714;9.472;2023-04-03T01:25:56;98769.13;;;2.70;68.13
79198;BME280;68628;48.714;9.472;2023-04-03T01:28:29;98780.03;;;2.75;69.84
79198;BME280;68628;48.714;9.472;2023-04-03T01:33:51;98775.22;;;2.93;68.02
79198;BME280;68628;48.714;9.472;2023-04-03T01:36:23;98785.00;;;2.78;67.82
79198;BME280;68628;48.714;9.472;2023-04-03T01:38:53;98780.06;;;2.87;67.27
79198;BME280;68628;48.714;9.472;2023-04-03T01:41:20;98778.69;;;2.70;67.56
79198;BME280;68628;48.714;9.472;2023-04-03T01:43:49;98781.56;;;2.78;68.09
79198;BME280;68628;48.714;9.472;2023-04-03T01:46:15;98770.97;;;2.68;67.46
79198;BME280;68628;48.714;9.472;2023-04-03T01:48:42;98769.13;;;2.70;68.10
79198;BME280;68628;48.714;9.472;2023-04-03T01:51:08;98773.66;;;2.79;68.55
79198;BME280;68628;48.714;9.472;2023-04-03T01:53:34;98772.59;;;2.82;68.12
79198;BME280;68628;48.714;9.472;2023-04-03T01:55:59;98780.88;;;2.63;68.05
79198;BME280;68628;48.714;9.472;2023-04-03T01:58:25;98778.41;;;2.61;67.85
79198;BME280;68628;48.714;9.472;2023-04-03T02:00:51;98773.59;;;2.68;67.63
79198;BME280;68628;48.714;9.472;2023-04-03T02:03:17;98777.13;;;2.67;68.32
79198;BME280;68628;48.714;9.472;2023-04-03T02:05:44;98782.44;;;2.65;68.13
79198;BME280;68628;48.714;9.472;2023-04-03T02:08:10;98787.88;;;2.62;68.52
79198;BME280;68628;48.714;9.472;2023-04-03T02:10:36;98789.94;;;2.70;68.99
79198;BME280;68628;48.714;9.472;2023-04-03T02:13:02;98791.41;;;2.61;68.01
79198;BME280;68628;48.714;9.472;2023-04-03T02:15:28;98786.22;;;2.61;68.01
79198;BME280;68628;48.714;9.472;2023-04-03T02:17:53;98781.44;;;2.55;68.58
79198;BME280;68628;48.714;9.472;2023-04-03T02:20:20;98786.25;;;2.48;68.28
79198;BME280;68628;48.714;9.472;2023-04-03T02:22:46;98783.09;;;2.56;68.55
79198;BME280;68628;48.714;9.472;2023-04-03T02:25:12;98781.81;;;2.62;67.88
79198;BME280;68628;48.714;9.472;2023-04-03T02:27:38;98784.25;;;2.76;68.34
79198;BME280;68628;48.714;9.472;2023-04-03T02:30:05;98783.50;;;2.63;68.35
79198;BME280;68628;48.714;9.472;2023-04-03T02:32:31;98782.44;;;2.65;67.31
79198;BME280;68628;48.714;9.472;2023-04-03T02:34:57;98790.31;;;2.77;67.35
79198;BME280;68628;48.714;9.472;2023-04-03T02:37:22;98790.03;;;2.69;67.23
79198;BME280;68628;48.714;9.472;2023-04-03T02:39:48;98786.00;;;2.89;67.41
79198;BME280;68628;48.714;9.472;2023-04-03T02:42:13;98789.25;;;2.79;66.87
79198;BME280;68628;48.714;9.472;2023-04-03T02:44:39;98792.75;;;2.91;66.83
79198;BME280;68628;48.714;9.472;2023-04-03T02:47:05;98792.50;;;2.94;67.11
79198;BME280;68628;48.714;9.472;2023-04-03T02:49:31;98793.94;;;2.98;67.04
79198;BME280;68628;48.714;9.472;2023-04-03T02:51:56;98796.44;;;3.00;65.59
79198;BME280;68628;48.714;9.472;2023-04-03T02:54:22;98796.06;;;2.93;65.37
79198;BME280;68628;48.714;9.472;2023-04-03T02:56:49;98793.91;;;2.87;66.31
79198;BME280;68628;48.714;9.472;2023-04-03T02:59:15;98794.59;;;2.78;65.86
79198;BME280;68628;48.714;9.472;2023-04-03T03:01:40;98787.91;;;2.98;65.39
79198;BME280;68628;48.714;9.472;2023-04-03T03:04:06;98791.31;;;2.87;66.30
79198;BME280;68628;48.714;9.472;2023-04-03T03:06:31;98791.34;;;2.98;66.99
79198;BME280;68628;48.714;9.472;2023-04-03T03:08:57;98787.06;;;2.97;66.46
79198;BME280;68628;48.714;9.472;2023-04-03T03:11:23;98792.28;;;2.97;66.32
79198;BME280;68628;48.714;9.472;2023-04-03T03:13:49;98793.69;;;2.90;66.08
79198;BME280;68628;48.714;9.472;2023-04-03T03:16:14;98792.16;;;2.99;65.52
79198;BME280;68628;48.714;9.472;2023-04-03T03:18:40;98794.19;;;2.95;65.69
79198;BME280;68628;48.714;9.472;2023-04-03T03:21:06;98793.13;;;2.98;65.09
79198;BME280;68628;48.714;9.472;2023-04-03T03:23:32;98788.31;;;3.05;66.30
79198;BME280;68628;48.714;9.472;2023-04-03T03:26:03;98797.59;;;2.96;66.40
79198;BME280;68628;48.714;9.472;2023-04-03T03:28:31;98792.56;;;3.06;65.33
79198;BME280;68628;48.714;9.472;2023-04-03T03:30:58;98789.09;;;2.94;65.80
79198;BME280;68628;48.714;9.472;2023-04-03T03:33:25;98791.53;;;3.08;65.34
79198;BME280;68628;48.714;9.472;2023-04-03T03:35:52;98789.50;;;3.12;64.33
79198;BME280;68628;48.714;9.472;2023-04-03T03:38:18;98789.00;;;3.07;65.26
79198;BME280;68628;48.714;9.472;2023-04-03T03:40:44;98783.91;;;3.05;64.92
79198;BME280;68628;48.714;9.472;2023-04-03T03:43:10;98780.75;;;3.13;65.50
79198;BME280;68628;48.714;9.472;2023-04-03T03:45:35;98783.47;;;3.11;64.91
79198;BME280;68628;48.714;9.472;2023-04-03T03:48:06;98776.34;;;3.13;63.98
79198;BME280;68628;48.714;9.472;2023-04-03T03:50:33;98786.25;;;2.97;64.49
79198;BME280;68628;48.714;9.472;2023-04-03T03:52:58;98785.47;;;3.08;63.80
79198;BME280;68628;48.714;9.472;2023-04-03T03:55:25;98789.00;;;3.07;63.59
79198;BME280;68628;48.714;9.472;2023-04-03T03:57:54;98781.81;;;3.10;62.96
79198;BME280;68628;48.714;9.472;2023-04-03T04:00:20;98787.88;;;3.22;63.69
79198;BME280;68628;48.714;9.472;2023-04-03T04:02:46;98784.34;;;3.23;64.09
79198;BME280;68628;48.714;9.472;2023-04-03T04:05:12;98783.13;;;3.16;65.02
79198;BME280;68628;48.714;9.472;2023-04-03T04:07:40;98800.66;;;3.14;64.20
79198;BME280;68628;48.714;9.472;2023-04-03T04:10:06;98787.25;;;3.19;64.73
79198;BME280;68628;48.714;9.472;2023-04-03T04:12:32;98791.03;;;3.14;63.80
79198;BME280;68628;48.714;9.472;2023-04-03T04:14:58;98787.63;;;3.14;63.44
79198;BME280;68628;48.714;9.472;2023-04-03T04:17:23;98785.34;;;3.09;64.26
79198;BME280;68628;48.714;9.472;2023-04-03T04:19:49;98785.97;;;3.13;63.01
79198;BME280;68628;48.714;9.472;2023-04-03T04:22:15;98779.81;;;3.25;63.74
79198;BME280;68628;48.714;9.472;2023-04-03T04:24:43;98779.63;;;3.28;62.76
79198;BME280;68628;48.714;9.472;2023-04-03T04:27:08;98780.41;;;3.17;63.66
79198;BME280;68628;48.714;9.472;2023-04-03T04:29:34;98780.75;;;3.13;63.74
79198;BME280;68628;48.714;9.472;2023-04-03T04:32:03;98780.63;;;3.14;60.87
79198;BME280;68628;48.714;9.472;2023-04-03T04:34:30;98778.00;;;3.03;62.21
79198;BME280;68628;48.714;9.472;2023-04-03T04:36:56;98781.19;;;3.07;62.51
79198;BME280;68628;48.714;9.472;2023-04-03T04:39:22;98780.00;;;3.11;62.98
79198;BME280;68628;48.714;9.472;2023-04-03T04:41:48;98783.09;;;3.05;63.28
79198;BME280;68628;48.714;9.472;2023-04-03T04:44:13;98776.84;;;3.07;63.37
79198;BME280;68628;48.714;9.472;2023-04-03T04:46:42;98775.78;;;3.10;64.00
79198;BME280;68628;48.714;9.472;2023-04-03T04:49:07;98774.47;;;3.15;62.68
79198;BME280;68628;48.714;9.472;2023-04-03T04:51:33;98785.50;;;3.19;62.27
79198;BME280;68628;48.714;9.472;2023-04-03T04:54:01;98781.19;;;3.07;62.68
79198;BME280;68628;48.714;9.472;2023-04-03T04:56:27;98785.75;;;3.27;62.18
79198;BME280;68628;48.714;9.472;2023-04-03T04:58:53;98786.94;;;3.23;61.49
79198;BME280;68628;48.714;9.472;2023-04-03T05:01:21;98787.88;;;3.22;61.57
79198;BME280;68628;48.714;9.472;2023-04-03T05:03:47;98790.56;;;3.09;62.27
79198;BME280;68628;48.714;9.472;2023-04-03T05:06:16;98796.13;;;3.05;62.40
79198;BME280;68628;48.714;9.472;2023-04-03T05:08:41;98790.41;;;2.99;61.52
79198;BME280;68628;48.714;9.472;2023-04-03T05:11:07;98801.81;;;3.10;62.24
79198;BME280;68628;48.714;9.472;2023-04-03T05:13:35;98787.75;;;3.12;62.11
79198;BME280;68628;48.714;9.472;2023-04-03T05:16:00;98787.38;;;3.06;62.41
79198;BME280;68628;48.714;9.472;2023-04-03T05:18:26;98803.44;;;3.11;62.21
79198;BME280;68628;48.714;9.472;2023-04-03T05:20:52;98802.69;;;2.97;62.16
79198;BME280;68628;48.714;9.472;2023-04-03T05:23:17;98805.25;;;2.86;61.96
79198;BME280;68628;48.714;9.472;2023-04-03T05:25:43;98803.88;;;2.93;62.87
79198;BME280;68628;48.714;9.472;2023-04-03T05:28:12;98809.75;;;2.84;63.71
79198;BME280;68628;48.714;9.472;2023-04-03T05:30:40;98810.28;;;2.76;62.83
79198;BME280;68628;48.714;9.472;2023-04-03T05:33:09;98810.00;;;2.68;63.79
79198;BME280;68628;48.714;9.472;2023-04-03T05:35:36;98810.38;;;2.63;63.21
79198;BME280;68628;48.714;9.472;2023-04-03T05:38:11;98811.69;;;2.69;62.90
79198;BME280;68628;48.714;9.472;2023-04-03T05:40:37;98812.31;;;2.73;62.49
79198;BME280;68628;48.714;9.472;2023-04-03T05:43:08;98819.94;;;2.87;63.30
79198;BME280;68628;48.714;9.472;2023-04-03T05:45:33;98821.16;;;2.94;62.36
79198;BME280;68628;48.714;9.472;2023-04-03T05:48:02;98820.03;;;2.86;63.44
79198;BME280;68628;48.714;9.472;2023-04-03T05:50:27;98813.28;;;2.83;62.48
79198;BME280;68628;48.714;9.472;2023-04-03T05:52:57;98823.53;;;2.97;62.02
79198;BME280;68628;48.714;9.472;2023-04-03T05:55:24;98825.38;;;3.08;61.58
79198;BME280;68628;48.714;9.472;2023-04-03T05:57:50;98820.47;;;3.04;61.24
79198;BME280;68628;48.714;9.472;2023-04-03T06:00:16;98822.84;;;3.07;61.54
79198;BME280;68628;48.714;9.472;2023-04-03T06:02:42;98826.31;;;3.07;61.49
79198;BME280;68628;48.714;9.472;2023-04-03T06:05:09;98826.72;;;3.25;61.13
79198;BME280;68628;48.714;9.472;2023-04-03T06:07:44;98820.81;;;3.34;60.90
79198;BME280;68628;48.714;9.472;2023-04-03T06:10:11;98830.28;;;3.24;60.71
79198;BME280;68628;48.714;9.472;2023-04-03T06:12:37;98833.66;;;3.13;60.98
79198;BME280;68628;48.714;9.472;2023-04-03T06:15:10;98835.25;;;3.27;61.64
79198;BME280;68628;48.714;9.472;2023-04-03T06:17:44;98827.94;;;3.44;59.52
79198;BME280;68628;48.714;9.472;2023-04-03T06:20:13;98836.06;;;3.63;60.31
79198;BME280;68628;48.714;9.472;2023-04-03T06:22:39;98841.06;;;3.78;59.87
79198;BME280;68628;48.714;9.472;2023-04-03T06:25:07;98839.03;;;3.70;60.32
79198;BME280;68628;48.714;9.472;2023-04-03T06:27:37;98835.75;;;3.44;60.04
79198;BME280;68628;48.714;9.472;2023-04-03T06:30:09;98843.13;;;3.50;60.73
79198;BME280;68628;48.714;9.472;2023-04-03T06:32:48;98841.84;;;3.56;59.97
79198;BME280;68628;48.714;9.472;2023-04-03T06:35:14;98843.38;;;3.58;60.06
79198;BME280;68628;48.714;9.472;2023-04-03T06:37:41;98849.16;;;3.39;61.05
79198;BME280;68628;48.714;9.472;2023-04-03T06:40:09;98843.13;;;3.50;60.17
79198;BME280;68628;48.714;9.472;2023-04-03T06:42:46;98849.06;;;3.52;61.17
79198;BME280;68628;48.714;9.472;2023-04-03T06:45:20;98849.69;;;3.67;61.33
79198;BME280;68628;48.714;9.472;2023-04-03T06:47:46;98850.50;;;3.56;61.28
79198;BME280;68628;48.714;9.472;2023-04-03T06:50:12;98855.59;;;3.69;61.26
79198;BME280;68628;48.714;9.472;2023-04-03T06:52:40;98856.13;;;3.39;62.03
79198;BME280;68628;48.714;9.472;2023-04-03T06:55:07;98851.63;;;3.41;60.62
79198;BME280;68628;48.714;9.472;2023-04-03T06:57:34;98854.41;;;3.62;61.18
79198;BME280;68628;48.714;9.472;2023-04-03T07:00:05;98862.03;;;3.76;61.94
79198;BME280;68628;48.714;9.472;2023-04-03T07:02:32;98855.72;;;3.67;60.68
79198;BME280;68628;48.714;9.472;2023-04-03T07:05:01;98862.69;;;3.56;62.14
79198;BME280;68628;48.714;9.472;2023-04-03T07:07:30;98857.44;;;3.91;61.25
79198;BME280;68628;48.714;9.472;2023-04-03T07:09:56;98863.50;;;4.14;60.86
79198;BME280;68628;48.714;9.472;2023-04-03T07:12:22;98855.78;;;4.24;60.01
79198;BME280;68628;48.714;9.472;2023-04-03T07:14:48;98858.03;;;4.40;60.00
79198;BME280;68628;48.714;9.472;2023-04-03T07:17:14;98864.72;;;4.88;59.57
79198;BME280;68628;48.714;9.472;2023-04-03T07:19:40;98858.63;;;4.55;58.45
79198;BME280;68628;48.714;9.472;2023-04-03T07:22:11;98851.75;;;4.43;59.04
79198;BME280;68628;48.714;9.472;2023-04-03T07:24:37;98862.34;;;4.85;58.46
79198;BME280;68628;48.714;9.472;2023-04-03T07:27:03;98869.00;;;4.89;58.32
79198;BME280;68628;48.714;9.472;2023-04-03T07:29:42;98864.22;;;4.94;58.12
79198;BME280;68628;48.714;9.472;2023-04-03T07:32:10;98864.78;;;5.09;57.73
79198;BME280;68628;48.714;9.472;2023-04-03T07:34:36;98858.50;;;5.33;58.04
79198;BME280;68628;48.714;9.472;2023-04-03T07:37:07;98855.75;;;5.13;56.72
79198;BME280;68628;48.714;9.472;2023-04-03T07:39:43;98866.31;;;5.12;57.50
79198;BME280;68628;48.714;9.472;2023-04-03T07:42:10;98864.41;;;5.67;57.28
79198;BME280;68628;48.714;9.472;2023-04-03T07:44:40;98868.97;;;5.54;56.57
79198;BME280;68628;48.714;9.472;2023-04-03T07:47:06;98859.50;;;5.95;54.83
79198;BME280;68628;48.714;9.472;2023-04-03T07:49:38;98872.50;;;6.07;55.28
79198;BME280;68628;48.714;9.472;2023-04-03T07:52:06;98870.56;;;6.30;54.09
79198;BME280;68628;48.714;9.472;2023-04-03T07:54:43;98873.56;;;6.25;53.60
79198;BME280;68628;48.714;9.472;2023-04-03T07:57:09;98866.91;;;5.90;54.25
79198;BME280;68628;48.714;9.472;2023-04-03T07:59:35;98877.56;;;5.98;55.50
79198;BME280;68628;48.714;9.472;2023-04-03T08:02:01;98879.66;;;6.36;55.00
79198;BME280;68628;48.714;9.472;2023-04-03T08:04:30;98877.44;;;6.31;54.29
79198;BME280;68628;48.714;9.472;2023-04-03T08:06:58;98877.88;;;6.36;52.93
79198;BME280;68628;48.714;9.472;2023-04-03T08:09:24;98878.91;;;7.05;52.13
79198;BME280;68628;48.714;9.472;2023-04-03T08:11:54;98888.94;;;8.36;49.87
79198;BME280;68628;48.714;9.472;2023-04-03T08:14:20;98884.41;;;7.71;50.82
79198;BME280;68628;48.714;9.472;2023-04-03T08:16:48;98879.31;;;7.59;51.08
79198;BME280;68628;48.714;9.472;2023-04-03T08:19:14;98871.59;;;7.19;51.38
79198;BME280;68628;48.714;9.472;2023-04-03T08:21:46;98872.00;;;7.33;50.30
79198;BME280;68628;48.714;9.472;2023-04-03T08:24:15;98879.88;;;7.43;50.77
79198;BME280;68628;48.714;9.472;2023-04-03T08:26:41;98871.72;;;7.07;52.14
79198;BME280;68628;48.714;9.472;2023-04-03T08:29:06;98890.78;;;7.58;50.48
79198;BME280;68628;48.714;9.472;2023-04-03T08:31:39;98885.81;;;7.65;50.71
79198;BME280;68628;48.714;9.472;2023-04-03T08:34:05;98878.31;;;7.80;49.83
79198;BME280;68628;48.714;9.472;2023-04-03T08:36:39;98885.50;;;9.19;47.77
79198;BME280;68628;48.714;9.472;2023-04-03T08:39:12;98882.78;;;9.10;47.32
79198;BME280;68628;48.714;9.472;2023-04-03T08:41:43;98881.97;;;8.54;48.24
79198;BME280;68628;48.714;9.472;2023-04-03T08:44:40;98887.19;;;9.10;47.31
79198;BME280;68628;48.714;9.472;2023-04-03T08:47:24;98888.44;;;8.88;47.05
79198;BME280;68628;48.714;9.472;2023-04-03T08:50:06;98891.97;;;8.41;47.25
79198;BME280;68628;48.714;9.472;2023-04-03T08:52:55;98886.00;;;8.01;48.21
79198;BME280;68628;48.714;9.472;2023-04-03T08:55:51;98891.59;;;8.91;47.62
79198;BME280;68628;48.714;9.472;2023-04-03T08:58:29;98892.03;;;8.21;48.27
79198;BME280;68628;48.714;9.472;2023-04-03T09:01:36;98903.91;;;8.25;49.28
79198;BME280;68628;48.714;9.472;2023-04-03T09:04:14;98903.00;;;8.54;48.30
79198;BME280;68628;48.714;9.472;2023-04-03T09:06:54;98906.72;;;8.04;49.03
79198;BME280;68628;48.714;9.472;2023-04-03T09:09:33;98897.25;;;7.15;50.55
79198;BME280;68628;48.714;9.472;2023-04-03T09:12:32;98902.91;;;7.69;49.66
79198;BME280;68628;48.714;9.472;2023-04-03T09:15:22;98905.09;;;7.74;50.18
79198;BME280;68628;48.714;9.472;2023-04-03T09:23:22;98902.59;;;6.94;49.37
79198;BME280;68628;48.714;9.472;2023-04-03T09:26:07;98903.69;;;6.91;48.91
79198;BME280;68628;48.714;9.472;2023-04-03T09:28:41;98897.28;;;6.33;49.72
79198;BME280;68628;48.714;9.472;2023-04-03T09:31:43;98897.66;;;6.50;50.53
79198;BME280;68628;48.714;9.472;2023-04-03T09:36:58;98891.69;;;6.98;48.44
79198;BME280;68628;48.714;9.472;2023-04-03T09:39:52;98895.47;;;7.45;48.42
79198;BME280;68628;48.714;9.472;2023-04-03T09:42:23;98893.25;;;7.11;47.46
79198;BME280;68628;48.714;9.472;2023-04-03T09:44:59;98891.28;;;7.81;44.85
79198;BME280;68628;48.714;9.472;2023-04-03T09:47:36;98899.91;;;7.54;45.64
79198;BME280;68628;48.714;9.472;2023-04-03T09:52:48;98894.31;;;6.89;46.78
79198;BME280;68628;48.714;9.472;2023-04-03T09:55:44;98899.69;;;6.87;46.91
79198;BME280;68628;48.714;9.472;2023-04-03T09:58:44;98897.31;;;6.74;49.63
79198;BME280;68628;48.714;9.472;2023-04-03T10:04:18;98891.44;;;7.41;49.57
79198;BME280;68628;48.714;9.472;2023-04-03T10:06:52;98897.41;;;7.62;47.01
79198;BME280;68628;48.714;9.472;2023-04-03T10:09:31;98897.75;;;8.54;44.74
79198;BME280;68628;48.714;9.472;2023-04-03T10:12:05;98889.81;;;7.30;43.78
79198;BME280;68628;48.714;9.472;2023-04-03T10:20:44;98881.81;;;6.21;46.71
79198;BME280;68628;48.714;9.472;2023-04-03T10:23:45;98888.88;;;6.30;48.90
79198;BME280;68628;48.714;9.472;2023-04-03T10:29:42;98889.03;;;5.65;50.70
79198;BME280;68628;48.714;9.472;2023-04-03T10:45:28;98883.75;;;6.28;50.67
79198;BME280;68628;48.714;9.472;2023-04-03T10:51:39;98883.72;;;7.00;49.17
79198;BME280;68628;48.714;9.472;2023-04-03T10:54:42;98886.38;;;7.49;48.63
79198;BME280;68628;48.714;9.472;2023-04-03T10:57:31;98886.47;;;7.47;47.11
79198;BME280;68628;48.714;9.472;2023-04-03T11:00:19;98892.44;;;7.69;45.91
79198;BME280;68628;48.714;9.472;2023-04-03T11:02:59;98879.84;;;7.04;44.21
79198;BME280;68628;48.714;9.472;2023-04-03T11:05:47;98881.78;;;7.02;44.11
79198;BME280;68628;48.714;9.472;2023-04-03T11:08:30;98876.91;;;6.88;45.44
79198;BME280;68628;48.714;9.472;2023-04-03T11:11:08;98886.47;;;6.48;45.80
79198;BME280;68628;48.714;9.472;2023-04-03T11:16:32;98878.50;;;6.19;46.10
79198;BME280;68628;48.714;9.472;2023-04-03T11:19:35;98878.28;;;6.31;45.86
79198;BME280;68628;48.714;9.472;2023-04-03T11:27:45;98872.91;;;5.81;48.36
79198;BME280;68628;48.714;9.472;2023-04-03T11:33:58;98879.97;;;5.90;48.38
79198;BME280;68628;48.714;9.472;2023-04-03T11:36:46;98875.97;;;5.86;47.80
79198;BME280;68628;48.714;9.472;2023-04-03T11:42:15;98863.00;;;5.84;47.12
79198;BME280;68628;48.714;9.472;2023-04-03T11:48:02;98861.28;;;6.57;45.06
79198;BME280;68628;48.714;9.472;2023-04-03T11:50:51;98869.72;;;6.70;45.87
79198;BME280;68628;48.714;9.472;2023-04-03T11:53:39;98851.56;;;7.08;44.54
79198;BME280;68628;48.714;9.472;2023-04-03T12:04:22;98841.19;;;7.75;44.66
79198;BME280;68628;48.714;9.472;2023-04-03T12:07:00;98843.47;;;7.30;44.05
79198;BME280;68628;48.714;9.472;2023-04-03T12:12:36;98841.56;;;6.62;43.72
79198;BME280;68628;48.714;9.472;2023-04-03T12:15:49;98832.75;;;6.63;42.65
79198;BME280;68628;48.714;9.472;2023-04-03T12:21:20;98836.19;;;6.54;42.61
79198;BME280;68628;48.714;9.472;2023-04-03T12:26:43;98831.03;;;6.93;42.53
79198;BME280;68628;48.714;9.472;2023-04-03T12:43:48;98817.09;;;9.37;38.51
79198;BME280;68628;48.714;9.472;2023-04-03T12:46:45;98808.56;;;8.98;38.44
79198;BME280;68628;48.714;9.472;2023-04-03T12:49:41;98815.41;;;8.45;39.87
79198;BME280;68628;48.714;9.472;2023-04-03T12:54:56;98827.59;;;7.32;40.55
79198;BME280;68628;48.714;9.472;2023-04-03T12:57:38;98819.72;;;7.12;41.53
79198;BME280;68628;48.714;9.472;2023-04-03T13:03:22;98817.09;;;7.22;41.91
79198;BME280;68628;48.714;9.472;2023-04-03T13:05:59;98813.59;;;7.71;40.72
79198;BME280;68628;48.714;9.472;2023-04-03T13:08:30;98815.28;;;7.52;40.98
79198;BME280;68628;48.714;9.472;2023-04-03T13:11:25;98810.63;;;7.26;42.07
79198;BME280;68628;48.714;9.472;2023-04-03T13:14:03;98814.63;;;7.30;42.85
79198;BME280;68628;48.714;9.472;2023-04-03T13:16:39;98810.34;;;7.29;42.36
79198;BME280;68628;48.714;9.472;2023-04-03T13:19:20;98813.03;;;7.67;42.85
79198;BME280;68628;48.714;9.472;2023-04-03T13:21:49;98810.75;;;7.15;42.06
79198;BME280;68628;48.714;9.472;2023-04-03T13:24:22;98818.59;;;7.25;41.78
79198;BME280;68628;48.714;9.472;2023-04-03T13:26:54;98818.75;;;7.33;42.70
79198;BME280;68628;48.714;9.472;2023-04-03T13:29:31;98809.78;;;6.96;43.34
79198;BME280;68628;48.714;9.472;2023-04-03T13:32:04;98805.94;;;7.20;42.52
79198;BME280;68628;48.714;9.472;2023-04-03T13:34:41;98810.41;;;7.77;42.08
79198;BME280;68628;48.714;9.472;2023-04-03T13:40:08;98791.28;;;9.58;38.33
79198;BME280;68628;48.714;9.472;2023-04-03T13:42:39;98795.41;;;10.64;37.45
79198;BME280;68628;48.714;9.472;2023-04-03T13:45:25;98791.81;;;11.56;34.39
79198;BME280;68628;48.714;9.472;2023-04-03T13:48:14;98776.00;;;10.82;33.42
79198;BME280;68628;48.714;9.472;2023-04-03T13:51:16;98795.75;;;10.27;35.39
79198;BME280;68628;48.714;9.472;2023-04-03T13:54:16;98787.44;;;8.72;36.22
79198;BME280;68628;48.714;9.472;2023-04-03T13:56:45;98797.25;;;8.24;39.77
79198;BME280;68628;48.714;9.472;2023-04-03T14:01:44;98793.31;;;8.84;37.45
79198;BME280;68628;48.714;9.472;2023-04-03T14:04:24;98786.63;;;8.90;35.56
79198;BME280;68628;48.714;9.472;2023-04-03T14:06:57;98782.66;;;9.48;36.46
79198;BME280;68628;48.714;9.472;2023-04-03T14:09:26;98787.72;;;9.23;35.47
79198;BME280;68628;48.714;9.472;2023-04-03T14:12:06;98784.72;;;9.36;35.43
79198;BME280;68628;48.714;9.472;2023-04-03T14:14:41;98785.19;;;9.31;36.45
79198;BME280;68628;48.714;9.472;2023-04-03T14:17:23;98779.06;;;9.49;34.85
79198;BME280;68628;48.714;9.472;2023-04-03T14:20:04;98780.94;;;9.39;35.88
79198;BME280;68628;48.714;9.472;2023-04-03T14:22:49;98784.59;;;9.20;37.65
79198;BME280;68628;48.714;9.472;2023-04-03T14:25:21;98775.59;;;8.68;38.40
79198;BME280;68628;48.714;9.472;2023-04-03T14:27:53;98785.19;;;8.59;38.60
79198;BME280;68628;48.714;9.472;2023-04-03T14:30:36;98787.63;;;8.05;39.29
79198;BME280;68628;48.714;9.472;2023-04-03T14:33:14;98785.22;;;7.46;40.05
79198;BME280;68628;48.714;9.472;2023-04-03T14:35:52;98781.22;;;7.42;41.06
79198;BME280;68628;48.714;9.472;2023-04-03T14:38:27;98786.44;;;7.90;41.43
79198;BME280;68628;48.714;9.472;2023-04-03T14:40:56;98786.53;;;7.60;41.17
79198;BME280;68628;48.714;9.472;2023-04-03T14:43:22;98785.22;;;7.46;41.27
79198;BME280;68628;48.714;9.472;2023-04-03T14:45:49;98780.94;;;7.36;41.19
79198;BME280;68628;48.714;9.472;2023-04-03T14:48:25;98784.47;;;7.64;41.33
79198;BME280;68628;48.714;9.472;2023-04-03T14:50:53;98778.56;;;7.52;40.41
79198;BME280;68628;48.714;9.472;2023-04-03T14:53:21;98776.75;;;7.62;41.20
79198;BME280;68628;48.714;9.472;2023-04-03T14:55:51;98775.25;;;7.50;40.74
79198;BME280;68628;48.714;9.472;2023-04-03T14:58:23;98778.22;;;7.84;41.05
79198;BME280;68628;48.714;9.472;2023-04-03T15:00:49;98768.28;;;9.34;38.23
79198;BME280;68628;48.714;9.472;2023-04-03T15:03:18;98762.28;;;9.24;35.81
79198;BME280;68628;48.714;9.472;2023-04-03T15:05:47;98769.94;;;12.52;32.72
79198;BME280;68628;48.714;9.472;2023-04-03T15:08:24;98761.75;;;11.82;31.58
79198;BME280;68628;48.714;9.472;2023-04-03T15:10:56;98764.66;;;11.39;31.55
79198;BME280;68628;48.714;9.472;2023-04-03T15:13:23;98757.47;;;11.81;31.24
79198;BME280;68628;48.714;9.472;2023-04-03T15:15:52;98761.41;;;11.85;31.00
79198;BME280;68628;48.714;9.472;2023-04-03T15:18:25;98754.50;;;11.76;31.00
79198;BME280;68628;48.714;9.472;2023-04-03T15:20:54;98765.69;;;10.38;33.45
79198;BME280;68628;48.714;9.472;2023-04-03T15:23:25;98762.59;;;10.50;35.51